Time;durP1;ratioP1;P1;durP2;ratioP2;P2;SDS_P1;SDS_P2;PMS_P1;PMS_P2;Temp;Humidity;BMP_temperature;BMP_pressure;BME280_temperature;BME280_humidity;BME280_pressure;Samples;Min_cycle;Max_cycle;Signal;HPM_P1;HPM_P2
2023/10/09 00:02:08;;;;;;;12.40;6.20;;;;;;;4.06;91.65;99974.70;272625;1271;22272;-81
2023/10/09 00:08:32;;;;;;;12.40;5.80;;;;;;;3.97;91.91;99967.40;271378;1269;22641;-81
2023/10/09 00:14:38;;;;;;;14.30;5.20;;;;;;;3.85;92.04;99961.63;270818;1270;23794;-81
2023/10/09 00:20:42;;;;;;;10.60;5.00;;;;;;;3.78;92.38;99956.69;272457;1272;22209;-81
2023/10/09 00:26:45;;;;;;;11.70;5.00;;;;;;;3.70;92.66;99960.30;272455;1271;22341;-81
2023/10/09 00:33:01;;;;;;;11.80;4.50;;;;;;;3.60;93.04;99961.23;271667;1271;22503;-82
2023/10/09 00:39:12;;;;;;;9.50;4.80;;;;;;;3.54;92.70;99944.41;272809;1272;22400;-81
2023/10/09 00:45:24;;;;;;;11.00;5.40;;;;;;;3.42;93.04;99930.35;272862;1272;22387;-81
2023/10/09 00:52:01;;;;;;;10.10;4.60;;;;;;;3.45;93.43;99922.26;273180;1272;22240;-81
2023/10/09 00:58:11;;;;;;;10.70;5.20;;;;;;;3.43;93.53;99910.30;272835;1272;22276;-81
2023/10/09 01:04:40;;;;;;;10.50;5.00;;;;;;;3.30;93.16;99896.80;270901;1272;23280;-81
2023/10/09 01:11:09;;;;;;;10.20;5.40;;;;;;;3.07;93.00;99869.23;270945;1268;22561;-82
2023/10/09 01:17:18;;;;;;;14.90;4.80;;;;;;;2.93;93.30;99853.48;271171;1272;24213;-82
2023/10/09 01:23:23;;;;;;;12.10;4.70;;;;;;;2.84;93.97;99845.61;271975;1272;22585;-81
2023/10/09 01:29:29;;;;;;;14.10;5.70;;;;;;;2.80;93.95;99840.29;271822;1272;23367;-81
2023/10/09 01:35:47;;;;;;;13.80;5.10;;;;;;;2.72;94.22;99831.86;271865;1272;22184;-83
2023/10/09 01:41:58;;;;;;;13.20;6.10;;;;;;;2.56;93.77;99844.02;272814;1272;22320;-81
2023/10/09 01:48:04;;;;;;;9.90;4.90;;;;;;;2.49;94.72;99850.04;272766;1272;22198;-80
2023/10/09 01:54:06;;;;;;;11.10;5.40;;;;;;;2.62;95.76;99850.78;272057;1272;22443;-80
2023/10/09 02:00:09;;;;;;;19.60;5.70;;;;;;;2.66;95.39;99845.79;271215;1270;22529;-82
2023/10/09 02:06:24;;;;;;;12.00;5.40;;;;;;;2.63;95.57;99858.84;269409;1272;22497;-82
2023/10/09 02:12:33;;;;;;;11.20;6.10;;;;;;;2.60;95.80;99849.16;271789;1272;23852;-81
2023/10/09 02:25:11;;;;;;;10.40;4.70;;;;;;;2.71;96.98;99832.23;272112;1272;22538;-80
2023/10/09 02:31:11;;;;;;;9.90;5.20;;;;;;;2.80;97.54;99816.77;272436;1272;22629;-81
2023/10/09 02:37:13;;;;;;;10.30;5.00;;;;;;;2.89;97.84;99797.73;272038;1268;22199;-81
2023/10/09 02:43:20;;;;;;;9.90;4.80;;;;;;;2.90;97.62;99799.77;272742;1272;22789;-81
2023/10/09 02:49:24;;;;;;;9.60;5.10;;;;;;;2.99;98.18;99789.52;271650;1272;25560;-81
2023/10/09 02:55:27;;;;;;;12.10;4.60;;;;;;;3.06;98.26;99798.92;272684;1270;22195;-81
2023/10/09 03:01:29;;;;;;;9.10;4.80;;;;;;;3.15;98.91;99804.44;271815;1272;22208;-81
2023/10/09 03:07:37;;;;;;;10.40;5.50;;;;;;;3.20;98.70;99794.20;272872;1272;23213;-81
2023/10/09 03:13:44;;;;;;;9.70;4.50;;;;;;;3.21;98.65;99782.55;271099;1272;22548;-81
2023/10/09 03:19:48;;;;;;;9.50;4.80;;;;;;;3.24;98.72;99777.77;270548;1272;22544;-81
2023/10/09 03:25:51;;;;;;;9.70;4.90;;;;;;;3.28;98.97;99788.79;270722;1272;22575;-81
2023/10/09 03:31:56;;;;;;;10.40;5.90;;;;;;;3.23;98.60;99782.83;272608;1266;22562;-81
2023/10/09 03:38:11;;;;;;;9.20;4.70;;;;;;;3.25;99.35;99790.58;270383;1272;22818;-82
2023/10/09 03:44:17;;;;;;;9.30;4.40;;;;;;;3.32;99.69;99778.59;270821;1272;22543;-81
2023/10/09 03:50:38;;;;;;;11.00;5.10;;;;;;;3.40;99.96;99765.30;268272;1272;3560091;-82
2023/10/09 03:56:58;;;;;;;11.30;4.80;;;;;;;3.52;100.00;99746.86;270887;1272;23388;-83
2023/10/09 04:03:01;;;;;;;9.40;4.00;;;;;;;3.62;100.00;99740.20;270617;1269;25084;-82
2023/10/09 04:15:30;;;;;;;7.30;4.10;;;;;;;3.74;100.00;99695.37;270829;1272;23121;-81
2023/10/09 04:21:37;;;;;;;10.10;4.60;;;;;;;3.78;100.00;99701.04;271366;1272;22547;-81
2023/10/09 04:27:46;;;;;;;9.20;4.60;;;;;;;3.81;100.00;99703.34;272092;1272;22538;-82
2023/10/09 04:33:57;;;;;;;11.40;6.90;;;;;;;3.85;100.00;99696.50;271951;1272;22543;-83
2023/10/09 04:40:11;;;;;;;14.30;8.00;;;;;;;3.94;100.00;99689.80;272238;1272;22264;-83
2023/10/09 04:46:43;;;;;;;11.30;5.70;;;;;;;3.98;100.00;99668.14;272081;1270;22219;-82
2023/10/09 04:59:25;;;;;;;6.90;4.10;;;;;;;4.09;100.00;99654.30;272592;1272;24438;-82
2023/10/09 05:12:09;;;;;;;15.70;5.10;;;;;;;4.26;100.00;99648.84;271767;1268;22549;-82
2023/10/09 05:18:16;;;;;;;11.90;5.10;;;;;;;4.36;100.00;99639.85;272273;1270;22561;-81
2023/10/09 05:24:23;;;;;;;15.30;4.70;;;;;;;4.44;100.00;99627.95;272885;1272;22428;-83
2023/10/09 05:30:49;;;;;;;8.00;3.90;;;;;;;4.55;100.00;99621.92;272598;1270;22537;-81
2023/10/09 05:36:51;;;;;;;8.00;4.00;;;;;;;4.67;100.00;99621.30;272882;1270;22530;-82
2023/10/09 05:43:02;;;;;;;10.40;5.40;;;;;;;4.75;100.00;99613.48;271945;1271;25368;-81
2023/10/09 05:49:19;;;;;;;13.10;6.50;;;;;;;4.79;100.00;99597.91;272071;1272;22822;-82
2023/10/09 06:08:09;;;;;;;15.80;8.40;;;;;;;4.85;100.00;99541.34;272731;1270;22407;-83
2023/10/09 06:21:07;;;;;;;12.50;7.90;;;;;;;4.94;100.00;99555.52;272641;1272;22391;-81
2023/10/09 06:27:12;;;;;;;8.70;5.10;;;;;;;5.07;100.00;99571.98;272964;1270;22330;-81
2023/10/09 06:33:29;;;;;;;14.10;5.80;;;;;;;5.25;100.00;99585.89;273525;1272;22941;-81
2023/10/09 06:52:56;;;;;;;6.00;3.60;;;;;;;5.63;100.00;99626.10;273013;1272;22374;-81
2023/10/09 06:58:47;;;;;;;7.80;4.00;;;;;;;5.75;100.00;99620.01;273064;1271;22584;-83
2023/10/09 07:04:54;;;;;;;7.40;3.70;;;;;;;5.79;100.00;99614.55;272588;1270;22230;-81
2023/10/09 07:11:20;;;;;;;4.70;3.20;;;;;;;5.83;100.00;99620.65;272033;1270;22335;-81
2023/10/09 07:23:37;;;;;;;;;;;;;;;5.96;100.00;99621.58;272600;1272;22462;-81
2023/10/09 07:29:49;;;;;;;7.60;4.70;;;;;;;5.99;100.00;99619.25;272279;1272;22197;-82
2023/10/09 07:35:57;;;;;;;9.00;3.30;;;;;;;6.02;100.00;99609.89;272490;1262;22406;-81
2023/10/09 07:42:18;;;;;;;6.70;2.60;;;;;;;6.05;100.00;99611.11;272449;1272;22265;-82
2023/10/09 07:48:25;;;;;;;4.90;2.00;;;;;;;6.07;100.00;99616.94;272485;1270;22359;-81
2023/10/09 07:54:34;;;;;;;2.90;2.00;;;;;;;6.09;100.00;99616.63;272568;1272;22266;-82
2023/10/09 08:00:36;;;;;;;4.20;1.40;;;;;;;6.11;100.00;99601.62;272592;1272;23725;-82
2023/10/09 08:06:38;;;;;;;6.70;2.20;;;;;;;6.10;100.00;99599.35;272520;1272;23135;-81
2023/10/09 08:19:02;;;;;;;3.50;1.50;;;;;;;6.13;100.00;99610.43;272624;1266;22988;-82
2023/10/09 08:25:07;;;;;;;2.40;1.30;;;;;;;6.11;100.00;99588.06;270166;1272;22553;-82
2023/10/09 08:37:59;;;;;;;2.10;1.00;;;;;;;6.12;100.00;99563.78;270637;1272;22302;-81
2023/10/09 08:44:03;;;;;;;2.50;0.90;;;;;;;6.16;100.00;99550.89;270465;1272;22543;-82
2023/10/09 08:50:13;;;;;;;3.90;1.20;;;;;;;6.20;100.00;99529.54;270162;1272;22574;-81
2023/10/09 08:56:22;;;;;;;3.00;1.40;;;;;;;6.24;100.00;99520.44;271388;1272;22517;-80
2023/10/09 09:02:24;;;;;;;2.20;1.00;;;;;;;6.36;100.00;99495.07;269701;1267;23346;-82
2023/10/09 09:08:30;;;;;;;1.40;0.90;;;;;;;6.59;100.00;99473.70;270063;1272;22207;-81
2023/10/09 09:14:38;;;;;;;1.70;0.90;;;;;;;6.67;100.00;99467.37;271503;1270;22584;-81
2023/10/09 09:20:41;;;;;;;3.00;0.80;;;;;;;6.68;100.00;99449.79;271873;1270;22324;-81
2023/10/09 09:26:46;;;;;;;2.40;1.10;;;;;;;6.67;100.00;99434.79;272780;1270;22483;-81
2023/10/09 09:33:15;;;;;;;3.40;1.50;;;;;;;6.70;100.00;99435.13;272882;1270;22337;-80
2023/10/09 09:39:19;;;;;;;1.80;1.20;;;;;;;6.69;100.00;99437.92;272973;1272;22210;-81
2023/10/09 09:45:36;;;;;;;3.00;1.60;;;;;;;6.71;100.00;99430.23;272040;1270;22553;-80
2023/10/09 09:51:37;;;;;;;2.40;1.20;;;;;;;6.70;100.00;99419.52;271471;1271;22338;-81
2023/10/09 09:57:41;;;;;;;5.40;2.00;;;;;;;6.70;100.00;99420.61;270738;1270;22363;-82
2023/10/09 10:03:52;;;;;;;4.80;1.60;;;;;;;6.68;100.00;99410.83;270560;1270;22699;-82
2023/10/09 10:09:54;;;;;;;6.90;1.90;;;;;;;6.62;100.00;99405.42;270365;1272;22579;-81
2023/10/09 10:16:00;;;;;;;2.50;1.50;;;;;;;6.59;100.00;99387.13;270615;1270;22759;-81
2023/10/09 10:30:37;;;;;;;5.40;2.40;;;;;;;6.61;100.00;99386.35;272316;1270;22675;-82
2023/10/09 10:37:13;;;;;;;4.20;2.00;;;;;;;6.67;100.00;99385.66;270604;1270;22328;-82
2023/10/09 10:43:31;;;;;;;4.10;2.10;;;;;;;6.64;100.00;99372.83;271371;1268;23173;-82
2023/10/09 10:49:40;;;;;;;3.10;1.80;;;;;;;6.62;100.00;99363.67;270362;1262;22601;-81
2023/10/09 11:02:22;;;;;;;3.50;1.80;;;;;;;6.56;100.00;99337.52;272685;1272;22575;-83
2023/10/09 11:08:35;;;;;;;4.50;2.00;;;;;;;6.48;100.00;99331.73;270693;1271;23440;-82
2023/10/09 11:15:05;;;;;;;2.90;1.70;;;;;;;6.43;100.00;99313.08;270762;1265;23868;-82
2023/10/09 11:27:21;;;;;;;5.90;2.70;;;;;;;6.43;100.00;99276.73;272588;1270;22335;-82
2023/10/09 11:33:29;;;;;;;4.80;2.70;;;;;;;6.47;100.00;99254.73;272676;1270;22431;-82
2023/10/09 11:39:34;;;;;;;6.00;2.60;;;;;;;6.41;100.00;99245.85;272679;1264;23656;-83
2023/10/09 11:45:37;;;;;;;5.30;2.60;;;;;;;6.39;100.00;99244.91;272979;1270;23212;-83
2023/10/09 11:52:03;;;;;;;5.00;2.30;;;;;;;6.38;100.00;99245.66;272958;1272;22904;-83
2023/10/09 11:58:07;;;;;;;6.70;3.40;;;;;;;6.37;100.00;99245.23;273070;1272;22860;-83
2023/10/09 12:04:12;;;;;;;5.00;2.70;;;;;;;6.37;100.00;99233.74;272015;1271;22563;-84
2023/10/09 12:10:14;;;;;;;3.80;2.60;;;;;;;6.30;100.00;99218.46;272890;1272;22490;-82
2023/10/09 12:16:16;;;;;;;4.30;2.70;;;;;;;6.23;100.00;99203.01;272926;1270;22211;-82
2023/10/09 12:22:27;;;;;;;5.00;3.10;;;;;;;6.24;100.00;99190.60;272344;1270;25407;-81
2023/10/09 12:28:29;;;;;;;6.00;3.00;;;;;;;6.26;100.00;99202.31;272124;1272;22456;-82
2023/10/09 12:34:38;;;;;;;6.30;3.20;;;;;;;6.32;100.00;99207.56;272887;1267;22971;-82
2023/10/09 12:40:41;;;;;;;4.10;2.80;;;;;;;6.38;100.00;99204.19;272741;1265;23405;-81
2023/10/09 12:46:51;;;;;;;6.40;3.40;;;;;;;6.41;100.00;99203.55;272896;1272;22350;-82
2023/10/09 12:52:55;;;;;;;6.70;3.30;;;;;;;6.43;100.00;99197.40;272824;1265;24609;-81
2023/10/09 12:59:19;;;;;;;9.10;4.00;;;;;;;6.47;100.00;99188.05;272607;1271;22198;-81
2023/10/09 13:05:27;;;;;;;6.80;3.30;;;;;;;6.58;100.00;99182.94;271515;1271;22308;-81
2023/10/09 13:11:29;;;;;;;6.70;3.60;;;;;;;6.65;100.00;99186.50;272560;1272;22288;-81
2023/10/09 13:17:31;;;;;;;8.10;3.80;;;;;;;6.67;100.00;99192.54;273413;1271;22197;-82
2023/10/09 13:23:46;;;;;;;6.70;4.00;;;;;;;6.72;100.00;99205.98;273217;1275;22182;-82
2023/10/09 13:30:08;;;;;;;11.10;4.50;;;;;;;6.75;100.00;99195.17;272391;1272;22213;-81
2023/10/09 13:36:19;;;;;;;7.10;4.40;;;;;;;6.78;100.00;99185.25;273106;1271;22234;-81
2023/10/09 13:42:24;;;;;;;9.50;4.70;;;;;;;6.80;100.00;99175.50;272599;1271;22473;-81
2023/10/09 13:48:26;;;;;;;7.20;3.70;;;;;;;6.80;100.00;99161.05;272333;1270;22236;-81
2023/10/09 14:00:41;;;;;;;6.20;3.70;;;;;;;6.69;100.00;99152.33;272834;1269;23539;-81
2023/10/09 14:06:44;;;;;;;8.80;3.60;;;;;;;6.67;100.00;99159.96;271799;1270;23260;-81
2023/10/09 14:12:46;;;;;;;9.30;3.90;;;;;;;6.70;100.00;99157.88;272115;1270;22328;-82
2023/10/09 14:19:07;;;;;;;;;;;;;;;;;;;;;
2023/10/09 14:25:15;;;;;;;11.90;5.20;;;;;;;6.78;100.00;99163.08;273045;1271;22189;-81
2023/10/09 14:31:29;;;;;;;10.10;5.70;;;;;;;6.87;100.00;99160.23;272771;1272;22207;-81
2023/10/09 14:37:31;;;;;;;10.10;4.40;;;;;;;6.92;100.00;99140.93;272729;1270;22336;-82
2023/10/09 14:43:33;;;;;;;5.80;3.50;;;;;;;6.92;100.00;99133.70;272824;1268;22199;-81
2023/10/09 14:49:37;;;;;;;5.20;3.30;;;;;;;6.91;100.00;99135.31;271719;1256;25163;-81
2023/10/09 14:56:01;;;;;;;7.30;3.30;;;;;;;6.90;100.00;99141.41;271813;1272;22207;-82
2023/10/09 15:02:05;;;;;;;5.60;3.60;;;;;;;6.88;100.00;99152.72;272860;1272;22286;-84
2023/10/09 15:08:10;;;;;;;6.00;4.40;;;;;;;6.88;100.00;99160.11;273024;1272;22872;-81
2023/10/09 15:14:13;;;;;;;14.10;6.00;;;;;;;6.92;100.00;99167.45;272891;1272;22900;-83
2023/10/09 15:20:15;;;;;;;9.10;5.20;;;;;;;6.92;100.00;99161.23;272616;1270;23199;-82
2023/10/09 15:26:18;;;;;;;11.10;6.40;;;;;;;6.87;100.00;99164.05;272712;1270;22325;-82
2023/10/09 15:32:22;;;;;;;14.70;8.40;;;;;;;6.84;100.00;99173.92;272630;1272;22483;-82
2023/10/09 15:38:25;;;;;;;9.40;6.20;;;;;;;6.86;100.00;99181.42;272846;1261;22192;-82
2023/10/09 15:44:27;;;;;;;7.90;4.80;;;;;;;6.89;100.00;99193.66;264752;1270;10001477;-83
2023/10/09 15:50:32;;;;;;;6.40;4.30;;;;;;;6.93;100.00;99201.85;264883;1270;10001925;-82
2023/10/09 15:56:41;;;;;;;10.00;3.90;;;;;;;6.94;100.00;99199.48;272791;1270;22229;-82
2023/10/09 16:03:09;;;;;;;10.30;5.50;;;;;;;6.96;100.00;99195.80;270140;1271;22549;-82
2023/10/09 16:09:12;;;;;;;7.60;4.60;;;;;;;6.94;100.00;99200.65;271639;1271;22470;-83
2023/10/09 16:15:14;;;;;;;7.60;4.20;;;;;;;6.93;100.00;99200.70;271765;1272;22184;-83
2023/10/09 16:21:16;;;;;;;8.90;3.90;;;;;;;6.92;100.00;99191.79;272841;1272;22342;-82
2023/10/09 16:27:23;;;;;;;4.80;3.80;;;;;;;6.78;100.00;99170.78;270326;1272;22410;-83
2023/10/09 16:33:37;;;;;;;10.10;6.50;;;;;;;6.70;100.00;99161.13;272621;1271;22412;-84
2023/10/09 16:39:45;;;;;;;10.30;6.90;;;;;;;6.73;100.00;99163.01;272648;1271;23868;-83
2023/10/09 16:45:47;;;;;;;10.50;7.60;;;;;;;6.79;100.00;99183.64;272781;1270;24308;-83
2023/10/09 16:51:49;;;;;;;13.40;8.20;;;;;;;6.82;100.00;99206.42;273345;1269;22401;-83
2023/10/09 16:58:12;;;;;;;10.50;8.40;;;;;;;6.84;100.00;99221.95;272038;1265;23902;-83
2023/10/09 17:04:16;;;;;;;18.80;10.70;;;;;;;6.86;100.00;99234.14;270528;1272;22374;-83
2023/10/09 17:10:19;;;;;;;17.10;9.80;;;;;;;6.89;100.00;99230.51;273086;1271;23778;-83
2023/10/09 17:16:24;;;;;;;15.30;8.90;;;;;;;6.95;100.00;99226.88;272438;1272;22234;-82
2023/10/09 17:22:26;;;;;;;13.30;8.90;;;;;;;6.99;100.00;99242.48;272260;1272;22317;-82
2023/10/09 17:28:33;;;;;;;11.00;7.80;;;;;;;7.03;100.00;99248.48;271649;1272;22546;-85
2023/10/09 17:34:36;;;;;;;7.00;4.70;;;;;;;7.07;100.00;99261.05;272124;1268;23445;-82
2023/10/09 17:40:51;;;;;;;11.30;7.00;;;;;;;7.10;100.00;99268.60;272645;1272;22965;-82
2023/10/09 17:47:11;;;;;;;9.80;6.80;;;;;;;7.12;100.00;99281.96;272400;1272;23017;-83
2023/10/09 17:53:17;;;;;;;8.50;5.80;;;;;;;7.14;100.00;99296.01;272771;1275;22193;-82
2023/10/09 17:59:20;;;;;;;9.10;6.50;;;;;;;7.14;100.00;99285.42;272358;1272;22303;-82
2023/10/09 18:05:21;;;;;;;11.30;6.60;;;;;;;7.14;100.00;99282.80;272233;1272;22337;-82
2023/10/09 18:11:24;;;;;;;12.70;8.50;;;;;;;7.12;100.00;99270.07;272744;1272;22817;-82
2023/10/09 18:17:28;;;;;;;12.70;6.90;;;;;;;7.11;100.00;99264.11;272603;1272;22286;-82
2023/10/09 18:23:33;;;;;;;14.60;9.40;;;;;;;7.15;100.00;99269.84;272499;1272;22510;-84
2023/10/09 18:29:35;;;;;;;17.10;10.20;;;;;;;7.17;100.00;99269.81;272682;1271;22310;-82
2023/10/09 18:35:38;;;;;;;12.90;8.90;;;;;;;7.19;100.00;99272.82;272550;1272;22316;-82
2023/10/09 18:41:44;;;;;;;17.30;10.80;;;;;;;7.16;100.00;99281.23;272378;1272;22417;-83
2023/10/09 18:47:46;;;;;;;12.30;9.00;;;;;;;7.14;100.00;99281.87;272633;1272;22232;-83
2023/10/09 18:53:50;;;;;;;16.50;11.60;;;;;;;7.14;100.00;99281.80;272663;1271;22302;-83
2023/10/09 18:59:52;;;;;;;16.30;10.80;;;;;;;7.16;100.00;99289.69;272028;1272;22398;-83
2023/10/09 19:05:56;;;;;;;16.60;10.10;;;;;;;7.19;100.00;99307.77;272394;1271;22344;-82
2023/10/09 19:12:02;;;;;;;14.60;9.80;;;;;;;7.24;100.00;99308.30;272679;1272;22272;-82
2023/10/09 19:18:12;;;;;;;13.90;9.40;;;;;;;7.26;100.00;99290.77;272122;1270;22326;-83
2023/10/09 19:24:34;;;;;;;16.10;10.30;;;;;;;7.18;100.00;99288.44;271914;1272;22524;-82
2023/10/09 19:30:38;;;;;;;20.00;13.60;;;;;;;7.12;100.00;99288.18;270897;1272;22194;-82
2023/10/09 19:37:07;;;;;;;19.90;15.00;;;;;;;7.07;100.00;99295.48;273223;1272;22202;-83
2023/10/09 19:43:09;;;;;;;26.70;16.20;;;;;;;7.13;100.00;99300.66;272677;1271;22364;-83
2023/10/09 19:49:12;;;;;;;22.60;14.80;;;;;;;7.18;100.00;99305.16;272456;1272;22256;-83
2023/10/09 19:55:39;;;;;;;25.50;14.30;;;;;;;7.20;100.00;99313.16;272620;1272;22178;-83
2023/10/09 20:01:44;;;;;;;;;;;;;;;7.19;100.00;99319.27;272612;1272;22919;-84
2023/10/09 20:07:48;;;;;;;27.50;16.10;;;;;;;7.17;100.00;99313.38;273245;1275;23373;-83
2023/10/09 20:13:50;;;;;;;27.40;17.10;;;;;;;7.16;100.00;99317.71;271751;1272;22327;-84
2023/10/09 20:19:53;;;;;;;28.60;17.00;;;;;;;7.18;100.00;99314.80;271030;1272;22425;-83
2023/10/09 20:26:03;;;;;;;29.90;18.40;;;;;;;7.18;100.00;99311.77;271994;1272;23652;-83
2023/10/09 20:32:18;;;;;;;;;;;;;;;;;;;;;
2023/10/09 20:38:50;;;;;;;29.80;19.40;;;;;;;7.21;100.00;99312.33;270145;1272;22522;-83
2023/10/09 20:44:52;;;;;;;28.40;18.10;;;;;;;7.19;100.00;99307.20;271207;1268;23353;-83
2023/10/09 20:51:00;;;;;;;30.00;18.70;;;;;;;7.18;100.00;99302.50;271718;1272;22865;-83
2023/10/09 20:57:02;;;;;;;22.80;14.80;;;;;;;7.20;100.00;99311.84;272687;1271;23070;-83
2023/10/09 21:03:04;;;;;;;23.80;13.80;;;;;;;7.21;100.00;99317.31;270640;1272;22442;-83
2023/10/09 21:09:07;;;;;;;28.50;15.80;;;;;;;7.25;100.00;99321.25;272636;1260;23104;-83
2023/10/09 21:15:13;;;;;;;25.40;16.10;;;;;;;7.29;100.00;99318.48;272547;1272;22215;-83
2023/10/09 21:21:15;;;;;;;23.00;13.80;;;;;;;7.27;100.00;99316.87;271763;1272;23187;-83
2023/10/09 21:27:17;;;;;;;25.30;14.70;;;;;;;7.24;100.00;99326.98;272864;1275;22198;-83
2023/10/09 21:33:19;;;;;;;24.90;15.80;;;;;;;7.29;100.00;99334.36;272884;1273;22282;-83
2023/10/09 21:39:21;;;;;;;24.10;14.60;;;;;;;7.32;100.00;99327.20;272475;1272;22401;-83
2023/10/09 21:45:24;;;;;;;21.00;13.40;;;;;;;7.31;100.00;99336.95;272492;1264;23176;-84
2023/10/09 21:51:27;;;;;;;23.30;13.70;;;;;;;7.29;100.00;99336.98;271806;1272;22205;-83
2023/10/09 21:57:29;;;;;;;21.90;14.50;;;;;;;7.32;100.00;99335.92;272604;1272;22328;-83
2023/10/09 22:03:32;;;;;;;25.50;16.20;;;;;;;7.34;100.00;99334.81;272505;1272;22696;-83
2023/10/09 22:09:34;;;;;;;28.80;17.00;;;;;;;7.34;100.00;99334.64;270582;1272;22573;-84
2023/10/09 22:15:36;;;;;;;29.50;17.40;;;;;;;7.33;100.00;99348.48;269997;1272;24285;-83
2023/10/09 22:21:58;;;;;;;26.00;15.50;;;;;;;7.31;100.00;99356.20;270127;1271;22397;-83
2023/10/09 22:28:03;;;;;;;28.10;16.90;;;;;;;7.29;100.00;99357.16;272813;1272;23436;-83
2023/10/09 22:34:26;;;;;;;29.60;19.10;;;;;;;7.33;100.00;99358.27;270388;1271;22193;-83
2023/10/09 22:40:51;;;;;;;23.40;14.80;;;;;;;7.29;100.00;99362.05;269762;1270;23340;-83
2023/10/09 22:46:55;;;;;;;25.20;14.40;;;;;;;7.17;100.00;99365.52;272363;1275;22175;-82
2023/10/09 22:53:22;;;;;;;25.10;16.30;;;;;;;7.16;100.00;99366.30;272631;1271;22217;-83
2023/10/09 22:59:26;;;;;;;23.70;15.10;;;;;;;7.14;100.00;99364.86;272139;1270;22208;-83
2023/10/09 23:05:31;;;;;;;25.70;16.30;;;;;;;7.11;100.00;99365.39;272106;1270;22723;-84
2023/10/09 23:11:33;;;;;;;26.70;16.50;;;;;;;7.13;100.00;99363.03;272767;1272;22185;-83
2023/10/09 23:17:46;;;;;;;28.40;15.80;;;;;;;7.12;100.00;99365.44;271743;1271;22502;-83
2023/10/09 23:24:09;;;;;;;29.30;18.00;;;;;;;7.14;100.00;99370.37;269754;1272;22335;-83
2023/10/09 23:30:26;;;;;;;20.70;13.20;;;;;;;7.17;100.00;99378.48;270792;1272;22341;-83
2023/10/09 23:36:45;;;;;;;18.90;11.70;;;;;;;7.13;100.00;99381.02;272659;1257;22204;-83
2023/10/09 23:43:16;;;;;;;21.60;13.30;;;;;;;7.11;100.00;99383.59;272119;1271;22524;-83
2023/10/09 23:49:20;;;;;;;20.40;12.60;;;;;;;7.15;100.00;99384.80;271233;1270;22207;-84
2023/10/09 23:55:27;;;;;;;21.90;12.50;;;;;;;7.18;100.00;99390.55;272899;1270;22309;-83
